Time;durP1;ratioP1;P1;durP2;ratioP2;P2;SDS_P1;SDS_P2;PMS_P1;PMS_P2;Temp;Humidity;BMP_temperature;BMP_pressure;BME280_temperature;BME280_humidity;BME280_pressure;Samples;Min_cycle;Max_cycle;Signal;HPM_P1;HPM_P2
2022/08/21 00:01:58;;;;;;;4.70;1.73;;;19.50;99.90;;;;;;10248155;28;20046;-62
2022/08/21 00:06:59;;;;;;;6.15;1.60;;;19.40;99.90;;;;;;10243103;28;20576;-61
2022/08/21 00:12:02;;;;;;;4.28;1.60;;;19.40;99.90;;;;;;10247775;28;20078;-61
2022/08/21 00:17:04;;;;;;;4.68;1.77;;;19.30;99.90;;;;;;10249003;28;20055;-61
2022/08/21 00:22:06;;;;;;;6.60;1.88;;;19.20;99.90;;;;;;10244130;28;20062;-61
2022/08/21 00:27:08;;;;;;;4.60;1.65;;;19.10;99.90;;;;;;10248181;28;20050;-61
2022/08/21 00:32:09;;;;;;;4.93;1.85;;;19.00;99.90;;;;;;10253944;28;20109;-61
2022/08/21 00:37:11;;;;;;;4.88;1.98;;;19.00;99.90;;;;;;10250956;28;20055;-65
2022/08/21 00:42:14;;;;;;;4.50;1.92;;;18.90;99.90;;;;;;10245919;28;20047;-65
2022/08/21 00:47:18;;;;;;;8.07;3.38;;;18.80;99.90;;;;;;10236768;28;22807;-65
2022/08/21 00:52:24;;;;;;;7.40;3.03;;;18.80;99.90;;;;;;10246717;28;20051;-65
2022/08/21 00:57:30;;;;;;;6.70;2.20;;;18.70;99.90;;;;;;10248044;28;20050;-65
2022/08/21 01:02:31;;;;;;;3.97;2.30;;;18.60;99.90;;;;;;10248970;28;20042;-65
2022/08/21 01:07:33;;;;;;;7.78;2.75;;;18.50;99.90;;;;;;10249721;28;20054;-65
2022/08/21 01:12:35;;;;;;;3.67;2.33;;;18.40;99.90;;;;;;10247647;28;20066;-63
2022/08/21 01:17:38;;;;;;;5.85;2.55;;;18.30;99.90;;;;;;10255236;28;20067;-63
2022/08/21 01:22:39;;;;;;;4.80;2.80;;;18.20;99.90;;;;;;10241725;28;20058;-65
2022/08/21 01:27:41;;;;;;;4.53;2.17;;;18.10;99.90;;;;;;10252912;28;20062;-65
2022/08/21 01:32:44;;;;;;;6.15;2.70;;;18.10;99.90;;;;;;10249905;28;20113;-61
2022/08/21 01:37:46;;;;;;;6.10;2.25;;;18.00;99.90;;;;;;10248102;28;20067;-61
2022/08/21 01:42:48;;;;;;;5.53;3.25;;;17.90;99.90;;;;;;10250560;28;20529;-61
2022/08/21 01:47:50;;;;;;;9.27;3.22;;;17.80;99.90;;;;;;10246533;28;20059;-64
2022/08/21 01:52:51;;;;;;;5.00;2.10;;;17.70;99.90;;;;;;10245531;28;20051;-65
2022/08/21 01:57:53;;;;;;;8.60;2.30;;;17.50;99.90;;;;;;10244706;28;20058;-65
2022/08/21 02:02:55;;;;;;;4.60;2.42;;;17.50;99.90;;;;;;10226272;28;20106;-65
2022/08/21 02:07:57;;;;;;;7.40;2.63;;;17.40;99.90;;;;;;10239975;28;20050;-65
2022/08/21 02:13:00;;;;;;;7.78;3.03;;;17.30;99.90;;;;;;10242117;28;20441;-65
2022/08/21 02:18:05;;;;;;;7.93;3.10;;;17.20;99.90;;;;;;10245551;28;20066;-65
2022/08/21 02:23:08;;;;;;;14.30;4.53;;;17.20;99.90;;;;;;10251407;28;20050;-65
2022/08/21 02:28:12;;;;;;;13.05;4.40;;;17.10;99.90;;;;;;10246238;28;20698;-65
2022/08/21 02:33:14;;;;;;;6.13;3.33;;;17.00;99.90;;;;;;10244964;28;20051;-65
2022/08/21 02:38:22;;;;;;;5.57;3.03;;;17.00;99.90;;;;;;10250932;28;20058;-65
2022/08/21 02:43:26;;;;;;;6.05;2.33;;;17.00;99.90;;;;;;10251545;28;20050;-65
2022/08/21 02:48:31;;;;;;;6.05;2.88;;;16.80;99.90;;;;;;10252818;28;20043;-65
2022/08/21 02:53:34;;;;;;;9.38;2.53;;;16.70;99.90;;;;;;10254391;28;20390;-65
2022/08/21 02:58:41;;;;;;;7.32;3.17;;;16.70;99.90;;;;;;10253806;28;20051;-63
2022/08/21 03:03:44;;;;;;;4.70;2.85;;;16.70;99.90;;;;;;10234506;28;20058;-63
2022/08/21 03:08:46;;;;;;;7.75;3.00;;;16.60;99.90;;;;;;10256760;28;20051;-63
2022/08/21 03:13:48;;;;;;;6.95;3.05;;;16.50;99.90;;;;;;10261393;28;20498;-63
2022/08/21 03:18:50;;;;;;;6.45;3.33;;;16.40;99.90;;;;;;10229470;28;20059;-63
2022/08/21 03:23:53;;;;;;;5.70;2.30;;;16.30;99.90;;;;;;10240118;28;20047;-63
2022/08/21 03:28:57;;;;;;;5.60;2.80;;;16.20;99.90;;;;;;10244012;28;20055;-63
2022/08/21 03:33:59;;;;;;;8.00;3.10;;;16.20;99.90;;;;;;10247064;28;20046;-61
2022/08/21 03:39:00;;;;;;;6.40;3.10;;;16.10;99.90;;;;;;10253178;28;20113;-61
2022/08/21 03:44:02;;;;;;;4.90;2.65;;;16.10;99.90;;;;;;10248937;28;20557;-61
2022/08/21 03:49:04;;;;;;;6.25;3.53;;;16.10;99.90;;;;;;10242619;28;20117;-61
2022/08/21 03:54:06;;;;;;;7.60;4.30;;;16.00;99.90;;;;;;10255741;28;20054;-61
2022/08/21 03:59:08;;;;;;;7.40;3.75;;;16.00;99.90;;;;;;10254458;28;20055;-61
2022/08/21 04:04:10;;;;;;;12.20;3.97;;;16.00;99.90;;;;;;10246188;28;20118;-61
2022/08/21 04:09:14;;;;;;;7.75;3.40;;;16.00;99.90;;;;;;10247254;28;20051;-61
2022/08/21 04:14:17;;;;;;;7.60;3.60;;;15.90;99.90;;;;;;10275818;28;20445;-61
2022/08/21 04:19:19;;;;;;;25.08;7.05;;;15.90;99.90;;;;;;10290874;28;20110;-61
2022/08/21 04:24:20;;;;;;;11.88;5.10;;;15.80;99.90;;;;;;10284258;28;20061;-66
2022/08/21 04:29:22;;;;;;;9.48;3.83;;;15.80;99.90;;;;;;10292798;28;20129;-66
2022/08/21 04:34:23;;;;;;;7.28;4.00;;;15.70;99.90;;;;;;10294167;28;20042;-66
2022/08/21 04:39:25;;;;;;;6.95;3.90;;;15.70;99.90;;;;;;10285473;28;20054;-66
2022/08/21 04:44:30;;;;;;;5.93;3.15;;;15.70;99.90;;;;;;10279727;28;20046;-66
2022/08/21 04:49:32;;;;;;;5.07;3.33;;;15.60;99.90;;;;;;10293569;28;20084;-66
2022/08/21 04:54:34;;;;;;;6.93;3.30;;;15.60;99.90;;;;;;10293181;28;20405;-66
2022/08/21 04:59:50;;;;;;;8.45;3.47;;;15.50;99.90;;;;;;10291877;28;20578;-66
2022/08/21 05:04:54;;;;;;;9.27;3.95;;;15.50;99.90;;;;;;10294333;28;20050;-66
2022/08/21 05:09:58;;;;;;;9.40;3.70;;;15.50;99.90;;;;;;10275092;28;20054;-65
2022/08/21 05:15:00;;;;;;;9.63;3.50;;;15.60;99.90;;;;;;10241433;28;20572;-65
2022/08/21 05:20:03;;;;;;;6.90;3.72;;;15.70;99.90;;;;;;10246800;28;20055;-65
2022/08/21 05:25:06;;;;;;;4.28;3.30;;;15.70;99.90;;;;;;10261109;28;20507;-65
2022/08/21 05:30:11;;;;;;;10.57;4.18;;;15.80;99.90;;;;;;10249056;28;20054;-65
2022/08/21 05:35:13;;;;;;;5.95;4.18;;;15.90;99.90;;;;;;10228255;28;20063;-65
2022/08/21 05:40:15;;;;;;;7.45;3.65;;;16.00;99.90;;;;;;10252693;28;20051;-65
2022/08/21 05:45:28;;;;;;;10.00;3.78;;;16.10;99.90;;;;;;10250413;28;20801;-65
2022/08/21 05:50:46;;;;;;;6.40;3.30;;;16.20;99.90;;;;;;10243041;28;20052;-65
2022/08/21 05:55:48;;;;;;;7.97;3.72;;;16.30;99.90;;;;;;10250117;28;20071;-65
2022/08/21 06:00:51;;;;;;;11.55;4.50;;;16.50;99.90;;;;;;10251117;28;20070;-65
2022/08/21 06:05:54;;;;;;;10.07;3.80;;;16.70;99.90;;;;;;10257601;28;20051;-65
2022/08/21 06:10:57;;;;;;;12.27;4.72;;;16.80;99.90;;;;;;10256500;28;20051;-65
2022/08/21 06:16:08;;;;;;;6.68;3.63;;;17.00;99.90;;;;;;10260161;28;20618;-65
2022/08/21 06:21:11;;;;;;;9.40;4.07;;;17.10;99.90;;;;;;10261610;28;20955;-65
2022/08/21 06:26:13;;;;;;;7.72;3.67;;;17.30;99.90;;;;;;10261542;28;20047;-65
2022/08/21 06:31:21;;;;;;;6.30;3.60;;;17.40;99.90;;;;;;10250071;28;20113;-66
2022/08/21 06:36:23;;;;;;;8.98;3.65;;;17.50;99.90;;;;;;10256027;28;20051;-65
2022/08/21 06:41:25;;;;;;;9.02;4.15;;;17.70;99.90;;;;;;10260866;28;20035;-65
2022/08/21 06:46:29;;;;;;;6.88;3.90;;;17.80;99.90;;;;;;10247754;28;20127;-65
2022/08/21 06:51:31;;;;;;;11.50;4.00;;;18.00;99.90;;;;;;10246890;28;20140;-65
2022/08/21 06:56:35;;;;;;;8.00;4.30;;;18.20;99.90;;;;;;10249005;28;20101;-65
2022/08/21 07:01:36;;;;;;;5.53;3.60;;;18.30;99.90;;;;;;10250369;28;20075;-65
2022/08/21 07:06:38;;;;;;;6.25;3.30;;;18.50;99.90;;;;;;10253858;28;20053;-65
2022/08/21 07:11:40;;;;;;;6.72;3.90;;;18.60;99.90;;;;;;10248433;28;20039;-65
2022/08/21 07:16:48;;;;;;;6.50;3.30;;;18.70;99.90;;;;;;10253617;28;20051;-65
2022/08/21 07:21:50;;;;;;;10.50;3.47;;;18.90;99.90;;;;;;10250535;28;20114;-65
2022/08/21 07:26:52;;;;;;;7.93;3.22;;;19.10;99.90;;;;;;10252278;28;20063;-65
2022/08/21 07:31:54;;;;;;;10.10;3.88;;;19.20;99.90;;;;;;10255069;28;20055;-65
2022/08/21 07:36:58;;;;;;;7.07;3.33;;;19.40;99.90;;;;;;10254230;28;20271;-65
2022/08/21 07:42:07;;;;;;;6.15;3.75;;;19.50;99.90;;;;;;10251437;28;20149;-65
2022/08/21 07:47:09;;;;;;;6.90;4.22;;;19.70;99.90;;;;;;10252929;28;20047;-65
2022/08/21 07:52:10;;;;;;;9.65;4.32;;;19.90;99.90;;;;;;10247951;28;20058;-65
2022/08/21 07:57:12;;;;;;;6.57;3.28;;;20.00;99.90;;;;;;10253343;28;20063;-65
2022/08/21 08:02:44;;;;;;;7.47;3.80;;;20.10;99.90;;;;;;10253749;28;20094;-65
2022/08/21 08:07:47;;;;;;;4.65;3.42;;;20.40;99.90;;;;;;10254342;28;20050;-65
2022/08/21 08:12:51;;;;;;;7.05;3.65;;;20.50;99.90;;;;;;10250514;28;20050;-65
2022/08/21 08:17:54;;;;;;;13.23;3.63;;;20.80;99.90;;;;;;10248146;28;20501;-65
2022/08/21 08:22:56;;;;;;;6.13;3.75;;;20.90;99.90;;;;;;10249001;28;20055;-66
2022/08/21 08:27:58;;;;;;;11.65;4.15;;;21.00;99.90;;;;;;10248064;28;20150;-66
2022/08/21 08:33:00;;;;;;;7.30;3.60;;;21.10;99.90;;;;;;10246630;28;20054;-66
2022/08/21 08:38:02;;;;;;;6.78;3.25;;;21.30;99.90;;;;;;10249294;28;20712;-66
2022/08/21 08:43:05;;;;;;;7.18;4.03;;;21.40;99.90;;;;;;10246798;28;20054;-67
2022/08/21 08:48:13;;;;;;;6.70;3.05;;;21.70;99.90;;;;;;10252198;28;20065;-66
2022/08/21 08:53:29;;;;;;;8.45;3.40;;;22.10;99.90;;;;;;10249366;28;20066;-67
2022/08/21 08:58:39;;;;;;;6.22;2.72;;;22.10;99.90;;;;;;10250462;28;20055;-66
2022/08/21 09:03:40;;;;;;;6.45;2.53;;;22.40;99.90;;;;;;10236727;28;20070;-66
2022/08/21 09:08:54;;;;;;;8.77;2.22;;;22.70;99.90;;;;;;10248282;28;20054;-66
2022/08/21 09:14:18;;;;;;;3.35;1.65;;;22.70;99.90;;;;;;10245765;28;20047;-66
2022/08/21 09:19:36;;;;;;;5.85;1.92;;;23.10;99.90;;;;;;10242378;28;20062;-67
2022/08/21 09:24:53;;;;;;;7.13;1.77;;;23.20;99.90;;;;;;10246853;28;20050;-66
2022/08/21 09:29:57;;;;;;;4.47;1.67;;;23.40;99.90;;;;;;10239941;28;20047;-66
2022/08/21 09:35:08;;;;;;;2.33;1.60;;;23.60;99.90;;;;;;10245391;28;20137;-66
2022/08/21 09:40:35;;;;;;;3.53;1.77;;;23.80;99.90;;;;;;10249295;28;20379;-66
2022/08/21 09:45:39;;;;;;;4.18;1.83;;;24.20;99.90;;;;;;10244964;28;20098;-66
2022/08/21 09:50:43;;;;;;;9.40;2.55;;;24.30;99.90;;;;;;10242191;28;20050;-66
2022/08/21 10:01:20;;;;;;;4.65;1.42;;;24.60;99.80;;;;;;10247567;28;20062;-65
2022/08/21 10:06:27;;;;;;;5.53;2.03;;;24.60;99.20;;;;;;10252548;28;20048;-66
2022/08/21 10:11:29;;;;;;;;;;;24.80;98.50;;;;;;10241066;28;20054;-67
2022/08/21 10:16:44;;;;;;;4.15;1.52;;;24.90;98.20;;;;;;10224376;28;20333;-67
2022/08/21 10:22:19;;;;;;;6.25;1.30;;;25.10;98.60;;;;;;10253271;28;20179;-66
2022/08/21 10:27:43;;;;;;;5.15;1.45;;;25.20;97.60;;;;;;10249389;28;20315;-66
2022/08/21 10:32:55;;;;;;;3.78;1.08;;;25.30;96.30;;;;;;10252443;28;20043;-67
2022/08/21 10:38:39;;;;;;;4.43;1.13;;;25.50;95.90;;;;;;10252226;28;20043;-66
2022/08/21 10:44:08;;;;;;;2.50;1.00;;;25.60;95.80;;;;;;10251538;28;20502;-66
2022/08/21 10:49:22;;;;;;;4.43;0.90;;;25.90;95.10;;;;;;10253877;28;20084;-67
2022/08/21 10:54:45;;;;;;;5.25;0.93;;;25.70;93.60;;;;;;10254164;28;20109;-66
2022/08/21 11:00:01;;;;;;;4.75;0.75;;;25.80;93.60;;;;;;10252189;28;20051;-66
2022/08/21 11:05:13;;;;;;;8.13;0.85;;;26.10;93.00;;;;;;10250908;28;20058;-67
2022/08/21 11:10:26;;;;;;;4.55;0.93;;;26.20;92.80;;;;;;10256565;28;20055;-66
2022/08/21 11:15:34;;;;;;;3.83;1.33;;;26.60;91.40;;;;;;10256192;28;20047;-66
2022/08/21 11:20:54;;;;;;;1.95;1.00;;;27.10;92.30;;;;;;10249641;28;20046;-67
2022/08/21 11:26:23;;;;;;;1.80;0.70;;;27.30;90.00;;;;;;10241869;28;20474;-66
2022/08/21 11:31:56;;;;;;;2.70;0.70;;;27.40;89.90;;;;;;10251044;28;20055;-66
2022/08/21 11:37:33;;;;;;;3.00;0.88;;;27.40;85.40;;;;;;10248887;28;20114;-67
2022/08/21 11:42:55;;;;;;;3.90;0.73;;;27.50;82.80;;;;;;10249834;28;20046;-67
2022/08/21 11:48:16;;;;;;;3.20;0.90;;;28.00;83.90;;;;;;10248127;28;20070;-66
2022/08/21 11:53:23;;;;;;;2.90;0.70;;;28.30;83.10;;;;;;10244852;28;20055;-67
2022/08/21 11:58:46;;;;;;;7.07;0.82;;;28.20;81.10;;;;;;10244532;28;20513;-67
2022/08/21 12:04:23;;;;;;;2.25;0.57;;;28.20;80.50;;;;;;10246760;28;20063;-67
2022/08/21 12:09:32;;;;;;;3.08;1.08;;;27.70;79.90;;;;;;10244516;28;20054;-66
2022/08/21 12:14:47;;;;;;;7.78;0.70;;;27.80;82.80;;;;;;10240414;28;20129;-66
2022/08/21 12:20:01;;;;;;;2.30;0.93;;;28.20;81.60;;;;;;10250755;28;20121;-66
2022/08/21 12:25:15;;;;;;;1.65;0.50;;;28.50;78.70;;;;;;10242950;28;20349;-65
2022/08/21 12:30:28;;;;;;;2.15;0.55;;;28.50;78.20;;;;;;10245705;28;20110;-66
2022/08/21 12:35:40;;;;;;;1.60;0.60;;;28.40;75.00;;;;;;10243011;28;20050;-65
2022/08/21 12:40:47;;;;;;;2.47;0.60;;;28.20;75.20;;;;;;10231710;28;20082;-66
2022/08/21 12:45:50;;;;;;;2.65;0.55;;;28.20;74.60;;;;;;10252057;28;21909;-66
2022/08/21 12:51:10;;;;;;;4.25;0.50;;;28.40;74.20;;;;;;10241797;28;20071;-66
2022/08/21 12:56:15;;;;;;;4.90;0.60;;;28.60;73.20;;;;;;10250372;28;20106;-65
2022/08/21 13:01:24;;;;;;;2.93;0.50;;;28.50;73.40;;;;;;10247517;28;20051;-65
2022/08/21 13:06:29;;;;;;;1.33;0.70;;;28.60;73.10;;;;;;10247131;28;20047;-66
2022/08/21 13:11:32;;;;;;;3.07;0.40;;;29.20;73.70;;;;;;10244123;28;20055;-66
2022/08/21 13:16:34;;;;;;;4.80;1.33;;;29.50;71.00;;;;;;10248388;28;20078;-66
2022/08/21 13:21:42;;;;;;;5.00;0.70;;;29.30;70.20;;;;;;10245882;28;20053;-66
2022/08/21 13:26:45;;;;;;;2.75;0.63;;;29.20;69.50;;;;;;10227945;28;20465;-65
2022/08/21 13:31:52;;;;;;;1.45;0.40;;;29.70;69.30;;;;;;10246376;28;20049;-65
2022/08/21 13:36:58;;;;;;;1.75;0.50;;;30.00;68.80;;;;;;10253090;28;20062;-66
2022/08/21 13:42:04;;;;;;;3.08;0.32;;;30.50;65.90;;;;;;10225401;28;20046;-66
2022/08/21 13:47:09;;;;;;;0.77;0.30;;;31.20;65.80;;;;;;10252519;28;20066;-65
2022/08/21 13:52:25;;;;;;;2.15;0.40;;;31.40;63.60;;;;;;10255115;28;20055;-65
2022/08/21 13:57:33;;;;;;;6.15;0.45;;;31.80;63.40;;;;;;10250834;28;20047;-65
2022/08/21 14:02:40;;;;;;;2.90;0.40;;;32.30;63.20;;;;;;10251440;28;20529;-65
2022/08/21 14:07:43;;;;;;;1.35;0.40;;;32.60;60.40;;;;;;10241707;28;20062;-66
2022/08/21 14:12:54;;;;;;;0.85;0.30;;;33.00;59.50;;;;;;10248738;28;20130;-64
2022/08/21 14:18:15;;;;;;;1.92;1.10;;;33.10;57.50;;;;;;10237907;28;20109;-64
2022/08/21 14:23:27;;;;;;;1.25;0.28;;;33.20;57.30;;;;;;10257385;28;20449;-63
2022/08/21 14:28:32;;;;;;;1.38;0.40;;;33.70;56.20;;;;;;10254260;28;20176;-63
2022/08/21 14:33:34;;;;;;;1.05;0.30;;;33.70;55.70;;;;;;10262324;28;20047;-63
2022/08/21 14:38:39;;;;;;;2.78;0.32;;;34.90;55.00;;;;;;10261767;28;20043;-64
2022/08/21 14:43:41;;;;;;;1.65;0.30;;;35.20;54.30;;;;;;10242468;28;20098;-65
2022/08/21 14:48:43;;;;;;;0.75;0.30;;;35.60;53.00;;;;;;10263199;28;20038;-64
2022/08/21 14:53:46;;;;;;;1.00;0.30;;;34.10;54.10;;;;;;10262416;28;20054;-63
2022/08/21 14:58:51;;;;;;;2.97;0.30;;;34.20;54.00;;;;;;10263260;28;20062;-63
2022/08/21 15:03:53;;;;;;;0.70;0.30;;;33.50;54.50;;;;;;10264750;28;20372;-63
2022/08/21 15:08:54;;;;;;;1.90;0.30;;;32.60;54.40;;;;;;10252636;28;20055;-63
2022/08/21 15:14:00;;;;;;;2.10;0.40;;;31.90;56.80;;;;;;10250415;28;20485;-68
2022/08/21 15:19:04;;;;;;;2.08;0.20;;;31.80;55.70;;;;;;10252735;28;20043;-64
2022/08/21 15:24:05;;;;;;;1.23;0.35;;;30.90;61.60;;;;;;10242956;28;20423;-63
2022/08/21 15:29:08;;;;;;;1.05;0.30;;;30.30;56.40;;;;;;10260838;28;20486;-63
2022/08/21 15:34:11;;;;;;;1.45;0.35;;;30.20;57.30;;;;;;10245280;28;20043;-63
2022/08/21 15:39:13;;;;;;;3.03;0.95;;;29.80;57.10;;;;;;10262196;28;20055;-61
2022/08/21 15:44:15;;;;;;;3.42;0.30;;;30.20;61.20;;;;;;10260276;28;20047;-61
2022/08/21 15:49:17;;;;;;;0.95;0.30;;;30.10;56.40;;;;;;10255576;28;20058;-61
2022/08/21 15:54:19;;;;;;;4.95;0.32;;;29.60;57.60;;;;;;10256354;28;21528;-61
2022/08/21 15:59:22;;;;;;;0.47;0.30;;;29.70;56.90;;;;;;10260754;28;20413;-62
2022/08/21 16:04:27;;;;;;;4.43;0.40;;;29.70;58.00;;;;;;10257263;28;20047;-62
2022/08/21 16:09:29;;;;;;;;;;;29.30;58.60;;;;;;10255283;28;20051;-61
2022/08/21 16:14:32;;;;;;;2.92;0.40;;;29.00;59.10;;;;;;10241114;28;19933;-62
2022/08/21 16:19:36;;;;;;;2.92;0.40;;;28.80;58.30;;;;;;10257486;28;20055;-62
2022/08/21 16:24:37;;;;;;;2.58;0.30;;;28.70;58.70;;;;;;10247140;28;20050;-62
2022/08/21 16:29:41;;;;;;;2.15;0.30;;;28.50;58.90;;;;;;10246364;28;20051;-61
2022/08/21 16:34:46;;;;;;;0.30;0.20;;;28.40;59.40;;;;;;10262054;28;20632;-61
2022/08/21 16:39:48;;;;;;;1.20;0.30;;;28.30;59.40;;;;;;10257387;28;20039;-61
2022/08/21 16:44:52;;;;;;;3.15;0.20;;;28.40;59.20;;;;;;10254298;28;20054;-60
2022/08/21 16:49:54;;;;;;;2.42;0.20;;;28.50;58.80;;;;;;10251536;28;20108;-67
2022/08/21 16:54:56;;;;;;;1.02;0.20;;;28.60;60.90;;;;;;10255337;28;20062;-70
2022/08/21 16:59:58;;;;;;;1.42;0.30;;;28.60;58.40;;;;;;10249945;28;20555;-63
2022/08/21 17:05:01;;;;;;;0.75;0.30;;;28.60;59.00;;;;;;10258011;28;20468;-62
2022/08/21 17:10:04;;;;;;;0.77;0.28;;;28.70;58.00;;;;;;10258812;28;20565;-62
2022/08/21 17:15:18;;;;;;;4.75;0.20;;;28.50;57.90;;;;;;10251090;28;20047;-62
2022/08/21 17:20:23;;;;;;;2.08;0.45;;;28.30;58.10;;;;;;10244092;28;20051;-61
2022/08/21 17:25:25;;;;;;;0.95;0.20;;;28.10;58.40;;;;;;10247065;28;20453;-63
2022/08/21 17:30:27;;;;;;;0.98;0.20;;;27.90;58.80;;;;;;10244878;28;20050;-61
2022/08/21 17:35:29;;;;;;;1.95;0.20;;;27.70;59.00;;;;;;10246915;28;20109;-62
2022/08/21 17:40:31;;;;;;;1.00;0.35;;;27.50;61.00;;;;;;10240307;28;20055;-62
2022/08/21 17:45:37;;;;;;;0.65;0.40;;;27.30;62.20;;;;;;10240079;28;20134;-62
2022/08/21 17:50:39;;;;;;;4.80;0.30;;;27.10;62.90;;;;;;10247973;28;20050;-61
2022/08/21 17:55:41;;;;;;;0.98;0.20;;;26.90;62.60;;;;;;10255813;28;20053;-61
2022/08/21 18:00:45;;;;;;;1.42;0.30;;;26.70;61.90;;;;;;10254365;28;20047;-61
2022/08/21 18:05:49;;;;;;;2.45;0.30;;;26.40;63.20;;;;;;10250778;28;20050;-62
2022/08/21 18:10:51;;;;;;;1.17;0.30;;;26.20;64.60;;;;;;10245099;28;22074;-61
2022/08/21 18:15:54;;;;;;;1.55;0.30;;;26.00;65.20;;;;;;10261789;28;20055;-62
2022/08/21 18:20:56;;;;;;;4.57;0.40;;;25.80;67.40;;;;;;10262275;28;20058;-65
2022/08/21 18:25:58;;;;;;;3.83;0.65;;;25.60;66.70;;;;;;10258733;28;20051;-63
2022/08/21 18:31:00;;;;;;;2.05;0.40;;;25.30;66.80;;;;;;10255041;28;20059;-62
2022/08/21 18:36:02;;;;;;;2.35;0.38;;;25.00;66.60;;;;;;10245250;28;20051;-62
2022/08/21 18:41:06;;;;;;;4.28;0.35;;;24.80;67.20;;;;;;10262389;28;20047;-66
2022/08/21 18:46:11;;;;;;;1.40;0.30;;;24.60;67.40;;;;;;10254685;28;20494;-65
2022/08/21 18:51:13;;;;;;;2.08;0.40;;;24.40;67.70;;;;;;10243457;28;20061;-64
2022/08/21 18:56:14;;;;;;;3.70;0.30;;;24.20;67.90;;;;;;10250868;28;20202;-66
2022/08/21 19:01:16;;;;;;;2.92;0.38;;;24.10;68.10;;;;;;10256057;28;20063;-66
2022/08/21 19:06:19;;;;;;;6.00;0.40;;;23.90;68.50;;;;;;10247041;28;20049;-67
2022/08/21 19:11:23;;;;;;;3.42;0.30;;;23.80;69.20;;;;;;10259370;28;20046;-63
2022/08/21 19:16:26;;;;;;;1.17;0.55;;;23.60;70.30;;;;;;10252350;28;20055;-65
2022/08/21 19:21:27;;;;;;;1.63;0.63;;;23.50;70.50;;;;;;10253412;28;20062;-65
2022/08/21 19:26:32;;;;;;;1.77;0.40;;;23.30;71.20;;;;;;10251272;28;20047;-64
2022/08/21 19:31:40;;;;;;;0.50;0.30;;;23.20;71.10;;;;;;10239549;28;20050;-65
2022/08/21 19:36:42;;;;;;;1.52;0.40;;;23.00;71.80;;;;;;10246961;28;20121;-65
2022/08/21 19:41:47;;;;;;;1.65;0.30;;;22.90;72.30;;;;;;10255026;28;20047;-65
2022/08/21 19:46:53;;;;;;;0.65;0.28;;;22.70;72.90;;;;;;10252194;28;20119;-65
2022/08/21 19:51:57;;;;;;;5.00;0.40;;;22.60;73.70;;;;;;10259189;28;20057;-65
2022/08/21 19:57:03;;;;;;;4.88;0.50;;;22.50;75.00;;;;;;10251513;28;20051;-65
2022/08/21 20:02:06;;;;;;;4.60;0.40;;;22.30;75.20;;;;;;10256572;28;20054;-65
2022/08/21 20:07:07;;;;;;;6.00;0.60;;;22.20;76.30;;;;;;10257373;28;20767;-65
2022/08/21 20:12:13;;;;;;;3.67;0.50;;;22.10;79.00;;;;;;10246185;28;20114;-64
2022/08/21 20:17:17;;;;;;;3.30;0.30;;;21.90;79.20;;;;;;10251036;28;20120;-65
2022/08/21 20:22:18;;;;;;;3.97;0.40;;;21.70;80.00;;;;;;10257856;28;20050;-65
2022/08/21 20:27:25;;;;;;;2.10;0.80;;;21.50;80.90;;;;;;10254044;28;20051;-65
2022/08/21 20:32:29;;;;;;;0.77;0.30;;;21.40;80.90;;;;;;10241924;28;20510;-65
2022/08/21 20:37:32;;;;;;;0.70;0.32;;;21.20;81.50;;;;;;10252088;28;20057;-65
2022/08/21 20:42:40;;;;;;;1.20;0.60;;;21.10;82.40;;;;;;10247611;28;20181;-65
2022/08/21 20:47:45;;;;;;;2.55;0.50;;;21.00;83.20;;;;;;10253714;28;20039;-65
2022/08/21 20:53:04;;;;;;;4.15;0.40;;;20.90;84.10;;;;;;10247990;28;20054;-64
2022/08/21 20:58:17;;;;;;;1.85;0.40;;;20.70;84.90;;;;;;10249535;28;20055;-64
2022/08/21 21:03:44;;;;;;;1.35;0.25;;;20.70;84.00;;;;;;10248834;28;20536;-64
2022/08/21 21:09:06;;;;;;;3.42;0.30;;;20.70;83.80;;;;;;10236349;28;20043;-64
2022/08/21 21:14:25;;;;;;;0.90;0.30;;;20.90;83.90;;;;;;10249824;28;20106;-64
2022/08/21 21:20:07;;;;;;;5.63;0.32;;;21.10;84.10;;;;;;10253971;28;20101;-64
2022/08/21 21:25:58;;;;;;;3.00;0.45;;;21.20;84.40;;;;;;10236120;28;20486;-64
2022/08/21 21:31:00;;;;;;;1.23;0.45;;;21.40;84.30;;;;;;10210578;28;20509;-64
2022/08/21 21:36:43;;;;;;;1.75;0.30;;;21.40;84.50;;;;;;10251758;28;20494;-63
2022/08/21 21:42:14;;;;;;;3.60;0.38;;;21.50;85.10;;;;;;10225397;28;20130;-64
2022/08/21 21:48:07;;;;;;;1.65;0.20;;;21.50;85.40;;;;;;10251018;28;20050;-64
2022/08/21 21:53:33;;;;;;;1.02;0.22;;;21.50;85.90;;;;;;10229317;28;20129;-64
2022/08/21 21:58:56;;;;;;;2.00;0.30;;;21.40;86.40;;;;;;10252938;28;20582;-64
2022/08/21 22:04:29;;;;;;;0.40;0.13;;;21.40;86.60;;;;;;10253826;28;20053;-64
2022/08/21 22:09:41;;;;;;;1.27;0.50;;;21.30;87.10;;;;;;10241995;28;20048;-64
2022/08/21 22:14:44;;;;;;;1.60;0.25;;;21.20;87.30;;;;;;10249318;28;20054;-64
2022/08/21 22:19:51;;;;;;;1.05;0.20;;;21.20;87.70;;;;;;10240492;28;20054;-65
2022/08/21 22:25:06;;;;;;;1.20;0.30;;;21.10;88.00;;;;;;10245803;28;20050;-65
2022/08/21 22:30:15;;;;;;;1.17;0.20;;;21.10;88.20;;;;;;10240641;28;20549;-64
2022/08/21 22:35:21;;;;;;;3.67;0.32;;;21.00;88.40;;;;;;10251313;28;20067;-65
2022/08/21 22:40:27;;;;;;;1.13;0.20;;;21.00;88.70;;;;;;10250326;28;20454;-64
2022/08/21 22:45:31;;;;;;;1.45;0.20;;;21.00;88.90;;;;;;10255027;28;20059;-65
2022/08/21 22:50:35;;;;;;;3.70;0.20;;;20.90;89.20;;;;;;10252356;28;20050;-65
2022/08/21 22:55:53;;;;;;;1.73;0.30;;;20.90;89.60;;;;;;10255037;28;20046;-65
2022/08/21 23:01:24;;;;;;;3.67;0.28;;;20.90;90.00;;;;;;10238791;28;20039;-64
2022/08/21 23:06:49;;;;;;;2.65;0.45;;;20.80;90.10;;;;;;10248510;28;20043;-64
2022/08/21 23:12:27;;;;;;;1.05;0.25;;;20.70;90.30;;;;;;10258480;28;20165;-64
2022/08/21 23:18:14;;;;;;;1.17;0.30;;;20.70;90.50;;;;;;10254582;28;20059;-65
2022/08/21 23:23:27;;;;;;;0.50;0.15;;;20.70;90.80;;;;;;10248248;28;20057;-65
2022/08/21 23:28:44;;;;;;;2.33;0.28;;;20.60;90.90;;;;;;10257984;28;20047;-65
2022/08/21 23:33:48;;;;;;;1.80;0.30;;;20.50;91.10;;;;;;10248051;28;20051;-65
2022/08/21 23:39:17;;;;;;;2.03;0.20;;;20.50;91.30;;;;;;10253856;28;20062;-65
2022/08/21 23:44:39;;;;;;;1.05;0.30;;;20.50;91.50;;;;;;10249122;28;20055;-65
2022/08/21 23:50:05;;;;;;;1.48;0.20;;;20.40;91.70;;;;;;10252212;28;20049;-65
2022/08/21 23:55:47;;;;;;;1.98;0.25;;;20.30;91.90;;;;;;10251844;28;20476;-65
